Atlantic Beach, NC

11:11 AM EDT on October 30, 2014 (GMT -0400)
Out on the dock @ Old Causeway | Change Station
CLOSE
Current Station
Personal Weather Station
Location: Atlantic Beach, NC
Elevation: 4 ft
Nearby Weather Stations

Elev 4 ft 34.71 °N, 76.75 °W | Updated 5 seconds ago

Mostly Cloudy
Mostly Cloudy
61.5 °F
Feels Like 61.5 °F
N
12.0
Wind Variable Wind from NNE
Gusts 17.0 mph

Today
High -- | Low -- °F
--% Chance of Precip.
Yesterday
High -- | Low -- °F
Precip. -- in
7:25 AM 6:15 PM
Waxing Crescent, 44% visible
Pressure 30.01 in
Visibility 10.0 miles
Clouds Few 2300 ft
Scattered Clouds 3600 ft
Mostly Cloudy 8000 ft
Dew Point 60 °F
Humidity 94%
Rainfall 0.06 in
Snow Depth Not available.
UV 2 out of 12
Pollen .40 out of 12
Air Quality Not available.
Flu Activity Not available.
METAR KMRH 301458Z AUTO 02015G19KT 10SM FEW023 SCT036 BKN080 18/12 A3000 RMK AO2 SLP160 T01780122 51009 TSNO

More Conditions Fewer Conditions

Pressure 30.01 in
Visibility 10.0 miles
Clouds Few 2300 ft
Scattered Clouds 3600 ft
Mostly Cloudy 8000 ft
Dew Point 60 °F
Humidity 94%
Rainfall 0.06 in
Snow Depth Not available.
UV 2 out of 12
Pollen .40 out of 12
Air Quality Not available.
Flu Activity Not available.
METAR KMRH 301458Z AUTO 02015G19KT 10SM FEW023 SCT036 BKN080 18/12 A3000 RMK AO2 SLP160 T01780122 51009 TSNO

More Conditions Fewer Conditions

10-Day Weather Forecast

Almanac

Astronomy

Oct. 30, 2014 Rise Set
Actual Time
Civil Twilight
Nautical Twilight
Astronomical Twilight
Moon
Length of Visible Light
Length of Day
Tomorrow will be .
, % of the Moon is Illuminated

Today's Extremes

State Highs State Lows

Community

WunderPhotos

Upload Photos

1,766,387 photos uploaded!

WunderBlogs® & News

Nearby

Air Quality

  Air Quality AQ Index Pollutant
Not available.

Snow Depth

Station Depth Elevation

Earthquake Activity

City Distance Mag. Time & Date
Minimum magnitude displayed is 2.5.

Coastal Water Temperatures

Place Temperature

Nearby Weather Stations